Terminal Aerodrome Forecast
Issued by NWS Cleveland, OH

Home | Current Version | Previous Version | Text Only | Print | Product List | Glossary On
Versions: 1 2 3 4 5 6 7 8 9 10 11 12 13 14 15 16 17 18 19 20 21 22 23 24
000
FTUS41 KCLE 270348 AAA
TAFMFD
TAF AMD
KMFD 270348Z 2704/2724 12005KT P6SM BKN120
     FM270500 12006KT 6SM -SHRA SCT025 OVC045
      TEMPO 2705/2708 4SM -SHRA BKN025
     FM270800 15006KT 4SM BR OVC012
     FM271500 05006KT P6SM BKN015
     FM271800 02006KT P6SM BKN045
     FM272100 02006KT P6SM SCT035 BKN120=

USA.gov is the U.S. government's official web portal to all federal, state and local government web resources and services.